Time;durP1;ratioP1;P1;durP2;ratioP2;P2;SDS_P1;SDS_P2;PMS_P1;PMS_P2;Temp;Humidity;BMP_temperature;BMP_pressure;BME280_temperature;BME280_humidity;BME280_pressure;Samples;Min_cycle;Max_cycle;Signal;HPM_P1;HPM_P2
2023/05/06 00:01:50;;;;;;;2.23;2.03;;;24.80;61.10;;;;;;4861329;29;20515;-83
2023/05/06 00:04:19;;;;;;;2.93;2.63;;;24.80;61.20;;;;;;4860805;29;20477;-83
2023/05/06 00:06:47;;;;;;;2.20;2.00;;;24.80;61.20;;;;;;4862573;29;20465;-83
2023/05/06 00:09:16;;;;;;;1.50;1.40;;;24.80;61.20;;;;;;4861201;29;20461;-83
2023/05/06 00:11:46;;;;;;;1.50;1.40;;;24.80;61.10;;;;;;4862355;29;20529;-83
2023/05/06 00:14:14;;;;;;;2.07;1.87;;;24.80;61.20;;;;;;4862641;29;20850;-84
2023/05/06 00:16:42;;;;;;;3.20;1.63;;;24.80;61.20;;;;;;4862186;29;20543;-84
2023/05/06 00:19:11;;;;;;;1.73;1.60;;;24.70;61.20;;;;;;4864039;29;20894;-84
2023/05/06 00:21:40;;;;;;;1.83;1.73;;;24.70;61.20;;;;;;4880901;29;20443;-83
2023/05/06 00:24:11;;;;;;;1.90;1.80;;;24.70;61.20;;;;;;4880432;29;20469;-83
2023/05/06 00:26:40;;;;;;;1.50;1.40;;;24.80;61.20;;;;;;4869408;29;20514;-83
2023/05/06 00:29:08;;;;;;;2.03;1.50;;;24.70;61.20;;;;;;4862423;29;20449;-83
2023/05/06 00:31:36;;;;;;;1.67;1.57;;;24.70;61.20;;;;;;4860562;29;20485;-83
2023/05/06 00:34:04;;;;;;;1.80;1.70;;;24.70;61.20;;;;;;4860706;29;20474;-83
2023/05/06 00:36:33;;;;;;;1.43;1.40;;;24.70;61.30;;;;;;4861197;29;20881;-84
2023/05/06 00:39:03;;;;;;;1.77;1.67;;;24.70;61.30;;;;;;4859464;29;20474;-83
2023/05/06 00:41:32;;;;;;;1.83;1.60;;;24.70;61.30;;;;;;4859426;29;20509;-83
2023/05/06 00:44:00;;;;;;;1.67;1.57;;;24.70;61.30;;;;;;4844057;29;20564;-83
2023/05/06 00:46:28;;;;;;;1.90;1.80;;;24.70;61.30;;;;;;4863634;29;20549;-82
2023/05/06 00:48:57;;;;;;;1.50;1.40;;;24.70;61.30;;;;;;4879312;29;20503;-83
2023/05/06 00:51:26;;;;;;;2.07;1.97;;;24.70;61.30;;;;;;4873789;29;20996;-83
2023/05/06 00:53:55;;;;;;;1.70;1.60;;;24.70;61.30;;;;;;4860827;29;20915;-83
2023/05/06 00:56:25;;;;;;;2.10;2.00;;;24.70;61.30;;;;;;4860806;29;20455;-83
2023/05/06 00:58:54;;;;;;;1.50;1.40;;;24.70;61.20;;;;;;4859849;29;20526;-83
2023/05/06 01:01:23;;;;;;;1.93;1.83;;;24.70;61.20;;;;;;4859186;29;20473;-83
2023/05/06 01:03:55;;;;;;;1.73;1.63;;;24.60;61.30;;;;;;4859754;29;20485;-83
2023/05/06 01:06:37;;;;;;;2.07;1.90;;;24.60;61.30;;;;;;4859175;29;20554;-83
2023/05/06 01:09:16;;;;;;;1.70;1.60;;;24.60;61.30;;;;;;4860433;29;20488;-83
2023/05/06 01:11:49;;;;;;;1.90;1.80;;;24.60;61.30;;;;;;4871535;29;20450;-83
2023/05/06 01:14:26;;;;;;;1.73;1.63;;;24.60;61.30;;;;;;4878927;29;20446;-83
2023/05/06 01:16:57;;;;;;;1.73;1.63;;;24.60;61.30;;;;;;4878778;29;20433;-83
2023/05/06 01:19:40;;;;;;;1.90;1.80;;;24.60;61.30;;;;;;4864816;29;20846;-83
2023/05/06 01:22:11;;;;;;;1.97;1.77;;;24.60;61.30;;;;;;4859369;29;20526;-84
2023/05/06 01:26:51;;;;;;;2.17;2.07;;;24.60;61.30;;;;;;5080136;22;20617;-70
2023/05/06 01:29:19;;;;;;;1.63;1.53;;;24.60;61.30;;;;;;5067823;28;20537;-71
2023/05/06 01:31:51;;;;;;;1.80;1.70;;;24.60;61.20;;;;;;5068592;28;20479;-70
2023/05/06 01:34:27;;;;;;;1.93;1.83;;;24.60;61.30;;;;;;5069484;28;20451;-70
2023/05/06 01:37:06;;;;;;;1.70;1.60;;;24.60;61.30;;;;;;5068854;28;20473;-69
2023/05/06 01:39:35;;;;;;;1.90;1.80;;;24.60;61.30;;;;;;5062113;28;20494;-70
2023/05/06 01:42:06;;;;;;;2.00;1.90;;;24.50;61.30;;;;;;5062915;28;20460;-70
2023/05/06 01:44:36;;;;;;;1.80;1.70;;;24.50;61.20;;;;;;5062144;28;20947;-69
2023/05/06 01:47:07;;;;;;;1.90;1.80;;;24.50;61.30;;;;;;5066613;28;20577;-69
2023/05/06 01:49:35;;;;;;;1.50;1.40;;;24.50;61.20;;;;;;5067654;28;20479;-70
2023/05/06 01:52:04;;;;;;;1.93;1.83;;;24.50;61.20;;;;;;5068197;28;20503;-70
2023/05/06 01:54:32;;;;;;;1.90;1.80;;;24.50;61.20;;;;;;5068289;28;20913;-70
2023/05/06 01:57:02;;;;;;;1.90;1.80;;;24.50;61.20;;;;;;5068867;28;20452;-70
2023/05/06 01:59:31;;;;;;;3.53;2.43;;;24.50;61.20;;;;;;5066219;28;20488;-69
2023/05/06 02:01:59;;;;;;;1.90;1.80;;;24.50;61.10;;;;;;5068401;28;20541;-69
2023/05/06 02:04:28;;;;;;;1.60;1.50;;;24.50;61.20;;;;;;5068659;28;20449;-70
2023/05/06 02:06:57;;;;;;;1.80;1.70;;;24.50;61.20;;;;;;5066633;28;20476;-70
2023/05/06 02:09:25;;;;;;;2.30;2.10;;;24.50;61.20;;;;;;5068290;28;20460;-70
2023/05/06 02:11:58;;;;;;;2.00;1.90;;;24.50;61.10;;;;;;5067532;28;20455;-69
2023/05/06 02:14:26;;;;;;;1.60;1.50;;;24.50;61.10;;;;;;5067403;28;20472;-70
2023/05/06 02:16:56;;;;;;;2.17;2.00;;;24.50;61.10;;;;;;5067052;28;20540;-69
2023/05/06 02:19:24;;;;;;;1.77;1.67;;;24.40;61.10;;;;;;5066727;28;20661;-70
2023/05/06 02:21:53;;;;;;;1.70;1.60;;;24.40;61.10;;;;;;5066151;28;20789;-70
2023/05/06 02:24:21;;;;;;;1.80;1.50;;;24.40;61.10;;;;;;5066725;28;20538;-70
2023/05/06 02:26:49;;;;;;;1.80;1.70;;;24.40;61.10;;;;;;5068057;28;20974;-70
2023/05/06 02:29:17;;;;;;;2.50;1.90;;;24.40;61.10;;;;;;5067496;28;20482;-69
2023/05/06 02:31:45;;;;;;;1.80;1.70;;;24.40;61.10;;;;;;5067188;28;20444;-70
2023/05/06 02:34:17;;;;;;;1.93;1.83;;;24.40;61.10;;;;;;5066541;28;20463;-70
2023/05/06 02:36:45;;;;;;;2.00;1.73;;;24.40;61.10;;;;;;5046149;28;20477;-70
2023/05/06 02:39:15;;;;;;;1.50;1.40;;;24.40;61.10;;;;;;5034798;28;21005;-71
2023/05/06 02:41:44;;;;;;;1.77;1.67;;;24.40;61.10;;;;;;5045267;28;20493;-70
2023/05/06 02:44:12;;;;;;;2.00;1.80;;;24.40;61.10;;;;;;5053732;28;20527;-70
2023/05/06 02:46:42;;;;;;;1.80;1.70;;;24.40;61.10;;;;;;5053941;28;20464;-71
2023/05/06 02:49:12;;;;;;;2.10;2.00;;;24.40;61.10;;;;;;5054326;28;20437;-70
2023/05/06 02:51:41;;;;;;;1.83;1.73;;;24.40;61.00;;;;;;5053985;28;20975;-70
2023/05/06 02:54:10;;;;;;;2.97;1.87;;;24.40;61.00;;;;;;5054205;28;20489;-70
2023/05/06 02:56:38;;;;;;;1.50;1.40;;;24.40;61.00;;;;;;5052790;28;20454;-70
2023/05/06 02:59:06;;;;;;;2.40;2.20;;;24.40;61.00;;;;;;5051947;28;20840;-72
2023/05/06 03:01:34;;;;;;;1.93;1.83;;;24.40;61.00;;;;;;5052516;28;20817;-70
2023/05/06 03:04:03;;;;;;;1.83;1.73;;;24.40;61.00;;;;;;5053645;28;20446;-70
2023/05/06 03:06:31;;;;;;;1.60;1.50;;;24.40;61.00;;;;;;5052398;28;20484;-70
2023/05/06 03:09:01;;;;;;;2.80;1.90;;;24.40;61.00;;;;;;5049252;28;20508;-70
2023/05/06 03:11:30;;;;;;;1.60;1.50;;;24.30;61.00;;;;;;5051868;28;20965;-70
2023/05/06 03:14:01;;;;;;;1.90;1.80;;;24.40;61.00;;;;;;5052331;28;20451;-70
2023/05/06 03:16:30;;;;;;;2.07;1.97;;;24.40;61.00;;;;;;5052382;28;20492;-70
2023/05/06 03:19:00;;;;;;;1.77;1.67;;;24.30;61.00;;;;;;5052409;28;20544;-70
2023/05/06 03:21:29;;;;;;;1.60;1.50;;;24.30;61.00;;;;;;5051872;28;20462;-71
2023/05/06 03:23:58;;;;;;;2.10;2.00;;;24.30;61.00;;;;;;5052571;28;21001;-69
2023/05/06 03:26:29;;;;;;;1.83;1.73;;;24.30;61.00;;;;;;5051919;28;20489;-69
2023/05/06 03:28:58;;;;;;;1.40;1.30;;;24.30;61.00;;;;;;5052123;28;20519;-69
2023/05/06 03:31:26;;;;;;;1.67;1.57;;;24.30;61.00;;;;;;5046952;28;20481;-69
2023/05/06 03:33:55;;;;;;;1.73;1.63;;;24.30;61.00;;;;;;5060296;28;20469;-70
2023/05/06 03:36:24;;;;;;;3.20;1.90;;;24.30;61.00;;;;;;5052360;28;20456;-69
2023/05/06 03:38:54;;;;;;;1.90;1.80;;;24.30;61.00;;;;;;5050841;28;20515;-69
2023/05/06 03:41:24;;;;;;;2.23;1.83;;;24.30;61.00;;;;;;5047935;28;20448;-69
2023/05/06 03:43:54;;;;;;;1.67;1.57;;;24.30;61.00;;;;;;5051667;28;20459;-69
2023/05/06 03:46:25;;;;;;;1.20;1.20;;;24.30;61.00;;;;;;5047487;28;20476;-68
2023/05/06 03:48:54;;;;;;;1.80;1.70;;;24.30;61.00;;;;;;5051649;28;20453;-69
2023/05/06 03:51:23;;;;;;;1.90;1.80;;;24.30;60.90;;;;;;5051508;28;20560;-69
2023/05/06 03:53:51;;;;;;;1.80;1.70;;;24.30;61.00;;;;;;5051563;28;20463;-68
2023/05/06 03:56:22;;;;;;;4.17;1.90;;;24.30;61.00;;;;;;5051635;28;20464;-70
2023/05/06 03:58:55;;;;;;;2.20;1.90;;;24.30;61.00;;;;;;5052867;28;20436;-69
2023/05/06 04:01:25;;;;;;;1.77;1.67;;;24.20;60.90;;;;;;5051046;28;20460;-68
2023/05/06 04:03:53;;;;;;;1.90;1.80;;;24.20;60.90;;;;;;5051594;28;20460;-69
2023/05/06 04:06:24;;;;;;;2.50;2.10;;;24.20;60.90;;;;;;5051783;28;20480;-69
2023/05/06 04:08:53;;;;;;;1.93;1.83;;;24.20;61.00;;;;;;5051296;28;20513;-69
2023/05/06 04:11:21;;;;;;;2.20;2.00;;;24.20;60.90;;;;;;5050541;28;20457;-71
2023/05/06 04:13:50;;;;;;;1.90;1.80;;;24.20;61.00;;;;;;5047384;28;20536;-69
2023/05/06 04:16:22;;;;;;;1.80;1.70;;;24.20;61.00;;;;;;5047631;28;20868;-70
2023/05/06 04:18:51;;;;;;;1.87;1.73;;;24.20;60.90;;;;;;5065561;28;20487;-69
2023/05/06 04:21:19;;;;;;;1.60;1.50;;;24.20;60.90;;;;;;5048159;28;20548;-70
2023/05/06 04:23:54;;;;;;;1.70;1.60;;;24.20;61.00;;;;;;5045733;28;21029;-70
2023/05/06 04:26:31;;;;;;;1.77;1.67;;;24.20;61.00;;;;;;5058050;28;20503;-70
2023/05/06 04:28:59;;;;;;;2.40;1.77;;;24.20;61.00;;;;;;5037390;28;20834;-71
2023/05/06 04:31:31;;;;;;;2.10;1.90;;;24.20;61.00;;;;;;5045792;28;20464;-72
2023/05/06 04:34:03;;;;;;;2.10;2.00;;;24.20;60.90;;;;;;5048488;28;20495;-71
2023/05/06 04:36:32;;;;;;;1.97;1.83;;;24.20;61.00;;;;;;5049535;28;20556;-70
2023/05/06 04:39:19;;;;;;;1.97;1.80;;;24.20;60.90;;;;;;5048819;28;21270;-70
2023/05/06 04:41:48;;;;;;;2.00;1.90;;;24.20;60.90;;;;;;5048016;28;20461;-70
2023/05/06 04:44:23;;;;;;;2.20;1.90;;;24.20;61.00;;;;;;5037529;28;20548;-72
2023/05/06 04:46:53;;;;;;;2.00;1.90;;;24.20;60.90;;;;;;5045638;28;21303;-69
2023/05/06 04:49:21;;;;;;;2.20;2.10;;;24.20;60.90;;;;;;5048027;28;20541;-70
2023/05/06 04:51:51;;;;;;;1.73;1.63;;;24.20;61.00;;;;;;5047169;28;20472;-70
2023/05/06 04:54:19;;;;;;;2.13;1.90;;;24.20;61.00;;;;;;5044549;28;20532;-70
2023/05/06 04:56:48;;;;;;;2.27;1.90;;;24.20;61.00;;;;;;5046101;28;20463;-72
2023/05/06 04:59:18;;;;;;;2.13;2.00;;;24.20;61.00;;;;;;5033766;28;20497;-70
2023/05/06 05:01:46;;;;;;;2.00;1.87;;;24.20;61.00;;;;;;5043464;28;20816;-71
2023/05/06 05:04:16;;;;;;;2.20;2.10;;;24.20;61.00;;;;;;5045120;28;20468;-70
2023/05/06 05:06:45;;;;;;;2.60;2.40;;;24.20;61.00;;;;;;5048431;28;20474;-70
2023/05/06 05:09:13;;;;;;;2.63;2.17;;;24.20;61.00;;;;;;5047714;28;20550;-70
2023/05/06 05:11:45;;;;;;;1.97;1.87;;;24.20;61.00;;;;;;5049029;28;20801;-70
2023/05/06 05:14:13;;;;;;;2.23;2.13;;;24.20;60.90;;;;;;5042133;28;21040;-70
2023/05/06 05:16:42;;;;;;;2.70;2.50;;;24.20;60.90;;;;;;5041423;28;20481;-71
2023/05/06 05:19:10;;;;;;;1.90;1.80;;;24.20;60.90;;;;;;5039623;28;20510;-71
2023/05/06 05:21:41;;;;;;;2.40;2.20;;;24.20;60.90;;;;;;5039305;28;20465;-70
2023/05/06 05:24:11;;;;;;;2.13;2.03;;;24.20;60.90;;;;;;5048405;28;21019;-70
2023/05/06 05:26:39;;;;;;;2.20;2.10;;;24.20;60.90;;;;;;5035467;28;20854;-70
2023/05/06 05:29:08;;;;;;;2.07;1.93;;;24.20;60.90;;;;;;5048077;28;20473;-70
2023/05/06 05:31:37;;;;;;;2.20;2.00;;;24.20;60.80;;;;;;5041369;28;21146;-70
2023/05/06 05:34:06;;;;;;;4.97;2.57;;;24.20;60.90;;;;;;5036723;28;20557;-70
2023/05/06 05:36:34;;;;;;;2.30;2.10;;;24.20;60.90;;;;;;5044455;28;20521;-70
2023/05/06 05:39:07;;;;;;;2.20;2.10;;;24.20;60.80;;;;;;5036491;28;20499;-70
2023/05/06 05:41:40;;;;;;;2.67;2.47;;;24.20;60.80;;;;;;5042654;28;20571;-70
2023/05/06 05:44:08;;;;;;;2.10;2.00;;;24.20;60.80;;;;;;5045000;28;20464;-71
2023/05/06 05:46:39;;;;;;;2.20;2.10;;;24.20;60.80;;;;;;5043034;28;20974;-70
2023/05/06 05:49:07;;;;;;;2.70;2.50;;;24.20;60.90;;;;;;5049120;28;20467;-70
2023/05/06 05:51:36;;;;;;;2.10;2.00;;;24.20;60.80;;;;;;5042264;28;20892;-71
2023/05/06 05:54:07;;;;;;;2.50;2.40;;;24.20;60.80;;;;;;5042663;28;20568;-70
2023/05/06 05:56:36;;;;;;;2.97;2.40;;;24.20;60.80;;;;;;5036422;28;20498;-70
2023/05/06 05:59:05;;;;;;;3.00;2.70;;;24.20;60.80;;;;;;5043457;28;20482;-73
2023/05/06 06:01:34;;;;;;;2.97;2.77;;;24.20;60.90;;;;;;5044717;28;20451;-73
2023/05/06 06:04:03;;;;;;;5.80;3.03;;;24.20;60.90;;;;;;5046488;28;20455;-72
2023/05/06 06:06:32;;;;;;;2.37;2.17;;;24.20;61.00;;;;;;5043696;28;20447;-75
2023/05/06 06:09:00;;;;;;;4.47;2.53;;;24.20;60.90;;;;;;5032977;28;20474;-74
2023/05/06 06:11:30;;;;;;;2.70;2.50;;;24.30;61.00;;;;;;5048768;28;20465;-72
2023/05/06 06:13:59;;;;;;;2.93;2.60;;;24.30;61.00;;;;;;5054440;28;20435;-72
2023/05/06 06:16:27;;;;;;;2.50;2.40;;;24.30;61.00;;;;;;5052621;28;20449;-70
2023/05/06 06:18:56;;;;;;;2.40;2.20;;;24.30;61.00;;;;;;5050858;28;20974;-71
2023/05/06 06:21:26;;;;;;;2.57;2.37;;;24.30;61.00;;;;;;5051507;28;20979;-72
2023/05/06 06:23:55;;;;;;;3.50;3.00;;;24.30;60.90;;;;;;5039581;28;21050;-72
2023/05/06 06:26:23;;;;;;;5.07;2.70;;;24.30;61.00;;;;;;5048199;28;20480;-71
2023/05/06 06:28:52;;;;;;;3.03;2.83;;;24.30;61.20;;;;;;5046529;28;20481;-73
2023/05/06 06:31:20;;;;;;;7.83;4.00;;;24.30;61.20;;;;;;5041767;28;21359;-72
2023/05/06 06:33:49;;;;;;;5.20;2.93;;;24.30;62.10;;;;;;5050875;28;20471;-72
2023/05/06 06:36:18;;;;;;;5.33;3.30;;;24.30;63.20;;;;;;5053297;28;20483;-72
2023/05/06 06:38:46;;;;;;;3.10;2.70;;;24.30;62.30;;;;;;5053921;28;20500;-72
2023/05/06 06:41:14;;;;;;;3.07;2.77;;;24.30;61.90;;;;;;5054522;28;20429;-71
2023/05/06 06:43:42;;;;;;;3.40;2.80;;;24.30;61.70;;;;;;5053778;28;20441;-71
2023/05/06 06:46:18;;;;;;;3.20;2.90;;;24.30;61.80;;;;;;5054127;28;20446;-71
2023/05/06 06:48:46;;;;;;;3.47;3.17;;;24.30;61.60;;;;;;5049126;28;20473;-72
2023/05/06 06:51:14;;;;;;;3.47;3.17;;;24.40;61.70;;;;;;5051824;28;20445;-69
2023/05/06 06:53:42;;;;;;;4.53;3.20;;;24.40;61.70;;;;;;5034960;28;20732;-71
2023/05/06 06:56:11;;;;;;;3.63;2.77;;;24.40;61.60;;;;;;5047607;28;20481;-70
2023/05/06 06:58:40;;;;;;;4.10;3.77;;;24.40;61.70;;;;;;5051273;28;20507;-71
2023/05/06 07:01:10;;;;;;;3.20;2.93;;;24.40;61.70;;;;;;5037915;28;20537;-72
2023/05/06 07:03:39;;;;;;;3.30;3.00;;;24.40;61.70;;;;;;5046882;28;20463;-71
2023/05/06 07:06:08;;;;;;;6.37;3.93;;;24.40;61.70;;;;;;5049898;28;20494;-70
2023/05/06 07:08:36;;;;;;;4.47;3.40;;;24.40;61.80;;;;;;5049316;28;20489;-71
2023/05/06 07:11:04;;;;;;;7.83;4.00;;;24.40;61.70;;;;;;5046351;28;20941;-74
2023/05/06 07:13:33;;;;;;;4.33;2.90;;;24.40;61.80;;;;;;5043288;28;20457;-71
2023/05/06 07:16:01;;;;;;;3.00;2.53;;;24.40;61.80;;;;;;5045459;28;21084;-72
2023/05/06 07:18:29;;;;;;;4.60;3.50;;;24.40;61.90;;;;;;5048506;28;20462;-74
2023/05/06 07:20:59;;;;;;;3.87;2.93;;;24.40;61.80;;;;;;5051040;28;20555;-73
2023/05/06 07:23:27;;;;;;;3.27;2.90;;;24.50;61.90;;;;;;5049815;28;21037;-74
2023/05/06 07:25:58;;;;;;;3.93;3.23;;;24.50;61.80;;;;;;5048341;28;20484;-73
2023/05/06 07:28:26;;;;;;;3.00;2.80;;;24.50;61.80;;;;;;5046534;28;20479;-71
2023/05/06 07:30:54;;;;;;;2.80;2.60;;;24.50;61.90;;;;;;5045771;28;20946;-73
2023/05/06 07:33:23;;;;;;;3.43;3.13;;;24.50;61.70;;;;;;5051133;28;20463;-72
2023/05/06 07:35:53;;;;;;;11.63;4.33;;;24.50;61.70;;;;;;5049670;28;20868;-75
2023/05/06 07:38:23;;;;;;;6.27;3.60;;;24.50;65.90;;;;;;5044136;28;20993;-73
2023/05/06 07:40:51;;;;;;;8.23;5.27;;;24.50;66.70;;;;;;5053098;28;20958;-73
2023/05/06 07:43:21;;;;;;;5.47;3.50;;;24.60;66.00;;;;;;5050362;28;20513;-74
2023/05/06 07:45:49;;;;;;;4.73;3.07;;;24.60;64.30;;;;;;5050697;28;20494;-74
2023/05/06 07:48:18;;;;;;;5.53;3.80;;;24.60;64.10;;;;;;5052833;28;20856;-74
2023/05/06 07:50:47;;;;;;;4.47;3.13;;;24.60;63.40;;;;;;5043085;28;20562;-74
2023/05/06 07:53:15;;;;;;;3.17;2.87;;;24.60;63.10;;;;;;5041422;28;20498;-74
2023/05/06 07:55:45;;;;;;;3.40;3.10;;;24.70;62.90;;;;;;5052160;28;20460;-74
2023/05/06 07:58:13;;;;;;;3.27;2.90;;;24.70;62.80;;;;;;5051233;28;20488;-74
2023/05/06 08:00:41;;;;;;;3.40;2.93;;;24.60;62.70;;;;;;5046094;28;20830;-74
2023/05/06 08:03:09;;;;;;;6.23;3.40;;;24.70;62.70;;;;;;5032264;28;20455;-73
2023/05/06 08:05:37;;;;;;;4.17;3.70;;;24.60;62.70;;;;;;5049495;28;20930;-74
2023/05/06 08:08:05;;;;;;;7.00;3.33;;;24.60;62.60;;;;;;5051064;28;20432;-74
2023/05/06 08:10:34;;;;;;;4.07;3.50;;;24.70;62.50;;;;;;5051135;28;20549;-74
2023/05/06 08:13:04;;;;;;;4.87;3.07;;;24.70;62.40;;;;;;5048994;28;20595;-74
2023/05/06 08:15:32;;;;;;;4.80;3.37;;;24.70;62.30;;;;;;5050562;28;20435;-74
2023/05/06 08:18:00;;;;;;;3.47;3.00;;;24.70;62.30;;;;;;5050363;28;20447;-73
2023/05/06 08:20:48;;;;;;;3.53;3.13;;;24.70;62.10;;;;;;5032954;28;20448;-74
2023/05/06 08:23:16;;;;;;;3.73;2.70;;;24.70;62.00;;;;;;5050337;28;20482;-72
2023/05/06 08:25:45;;;;;;;4.03;3.03;;;24.70;61.90;;;;;;5052411;28;20480;-74
2023/05/06 08:28:15;;;;;;;3.93;3.60;;;24.80;61.80;;;;;;5049746;28;20476;-74
2023/05/06 08:30:46;;;;;;;5.47;2.70;;;24.80;61.80;;;;;;5052079;28;20584;-74
2023/05/06 08:33:14;;;;;;;3.67;2.63;;;24.80;61.80;;;;;;5051056;28;20459;-72
2023/05/06 08:35:43;;;;;;;2.67;2.47;;;24.80;61.70;;;;;;5051087;28;20431;-74
2023/05/06 08:38:11;;;;;;;3.17;2.80;;;24.80;61.70;;;;;;5051027;28;20459;-74
2023/05/06 08:40:44;;;;;;;3.13;2.73;;;24.80;61.70;;;;;;5052048;28;20434;-74
2023/05/06 08:43:17;;;;;;;4.50;3.13;;;24.80;61.60;;;;;;5051401;28;20431;-74
2023/05/06 08:45:45;;;;;;;3.03;2.57;;;24.80;61.60;;;;;;5052183;28;20891;-72
2023/05/06 08:48:13;;;;;;;3.20;2.90;;;24.80;61.60;;;;;;5050919;28;20459;-75
2023/05/06 08:50:43;;;;;;;2.43;2.33;;;24.80;61.50;;;;;;5051404;28;21056;-74
2023/05/06 08:53:12;;;;;;;2.70;2.50;;;24.80;61.50;;;;;;5032539;28;20826;-74
2023/05/06 08:55:41;;;;;;;3.70;3.23;;;24.80;61.40;;;;;;5030680;28;20464;-74
2023/05/06 08:58:13;;;;;;;3.27;2.83;;;24.80;61.30;;;;;;5032508;28;20476;-74
2023/05/06 09:00:43;;;;;;;3.30;2.60;;;24.80;61.40;;;;;;5051818;28;20481;-74
2023/05/06 09:03:11;;;;;;;4.20;2.77;;;24.80;61.40;;;;;;5051810;28;20442;-74
2023/05/06 09:05:39;;;;;;;3.13;2.93;;;24.80;61.40;;;;;;5051728;28;21016;-74
2023/05/06 09:08:07;;;;;;;6.00;2.30;;;24.80;61.40;;;;;;5052047;28;20988;-74
2023/05/06 09:10:42;;;;;;;3.50;2.90;;;24.70;61.40;;;;;;5051722;28;20963;-74
2023/05/06 09:13:12;;;;;;;3.27;2.97;;;24.80;61.40;;;;;;5050734;28;20424;-74
2023/05/06 09:15:43;;;;;;;3.10;2.77;;;24.80;61.40;;;;;;5051720;28;20527;-74
2023/05/06 09:18:12;;;;;;;3.60;2.60;;;24.80;61.50;;;;;;5051578;28;20448;-74
2023/05/06 09:20:41;;;;;;;2.20;2.00;;;24.80;61.30;;;;;;5050796;28;20484;-74
2023/05/06 09:23:11;;;;;;;2.43;2.33;;;24.90;61.40;;;;;;5051562;28;20503;-74
2023/05/06 09:25:39;;;;;;;3.10;2.83;;;24.90;61.50;;;;;;5051156;28;20959;-74
2023/05/06 09:28:09;;;;;;;2.20;1.83;;;24.90;61.70;;;;;;5051472;28;20442;-75
2023/05/06 09:30:40;;;;;;;2.63;2.43;;;24.90;61.80;;;;;;5049821;28;20529;-74
2023/05/06 09:33:10;;;;;;;2.50;1.90;;;24.90;61.70;;;;;;5044403;28;20459;-73
2023/05/06 09:35:40;;;;;;;2.60;2.40;;;24.90;61.80;;;;;;5031731;28;20429;-73
2023/05/06 09:38:09;;;;;;;2.40;2.20;;;24.90;61.70;;;;;;5031748;28;20937;-74
2023/05/06 09:40:39;;;;;;;3.00;2.80;;;25.00;61.70;;;;;;5031418;28;20450;-74
2023/05/06 09:43:07;;;;;;;3.37;2.30;;;25.00;61.70;;;;;;5031465;28;20435;-74
2023/05/06 09:45:36;;;;;;;2.63;2.43;;;25.00;61.50;;;;;;5037860;28;20437;-73
2023/05/06 09:48:05;;;;;;;2.83;2.53;;;25.00;61.50;;;;;;5054078;28;20507;-74
2023/05/06 09:50:36;;;;;;;2.40;2.20;;;24.90;61.50;;;;;;5055291;28;21032;-74
2023/05/06 09:53:05;;;;;;;2.57;2.20;;;24.90;61.20;;;;;;5055059;28;20432;-74
2023/05/06 09:55:34;;;;;;;2.20;2.00;;;24.90;61.10;;;;;;5055111;28;20498;-73
2023/05/06 09:58:03;;;;;;;3.33;2.33;;;24.90;61.10;;;;;;5053841;28;20865;-74
2023/05/06 10:00:32;;;;;;;2.70;2.47;;;24.90;61.10;;;;;;5054936;28;20796;-74
2023/05/06 10:03:00;;;;;;;2.53;2.30;;;24.90;61.10;;;;;;5055278;28;20582;-74
2023/05/06 10:05:30;;;;;;;2.07;1.97;;;24.90;61.20;;;;;;5055242;28;20523;-72
2023/05/06 10:08:00;;;;;;;2.67;2.47;;;24.90;61.10;;;;;;5052717;28;20980;-74
2023/05/06 10:10:30;;;;;;;2.40;2.20;;;24.90;61.30;;;;;;5054964;28;20466;-74
2023/05/06 10:12:58;;;;;;;2.47;2.37;;;24.90;61.60;;;;;;5054753;28;20502;-74
2023/05/06 10:15:26;;;;;;;2.67;2.47;;;24.90;61.60;;;;;;5054835;28;20457;-74
2023/05/06 10:17:55;;;;;;;2.33;2.13;;;25.00;61.50;;;;;;5054730;28;20443;-74
2023/05/06 10:20:26;;;;;;;2.30;2.10;;;25.00;61.60;;;;;;5055368;28;20939;-74
2023/05/06 10:23:05;;;;;;;3.07;2.70;;;25.00;61.50;;;;;;5054781;28;20984;-74
2023/05/06 10:25:38;;;;;;;2.93;2.73;;;25.00;61.50;;;;;;5045805;28;20578;-74
2023/05/06 10:28:07;;;;;;;2.40;2.20;;;25.00;61.30;;;;;;5054031;28;20510;-74
2023/05/06 10:30:53;;;;;;;3.17;2.47;;;25.00;61.20;;;;;;5034439;28;20560;-74
2023/05/06 10:33:23;;;;;;;2.57;2.03;;;25.10;61.20;;;;;;5041654;28;20528;-74
2023/05/06 10:35:58;;;;;;;1.80;1.70;;;25.10;61.10;;;;;;5055029;28;20493;-74
2023/05/06 10:38:33;;;;;;;2.47;2.27;;;25.10;61.00;;;;;;5054447;28;20420;-73
2023/05/06 10:41:03;;;;;;;2.37;2.27;;;25.10;60.90;;;;;;5054661;28;20452;-74
2023/05/06 10:43:32;;;;;;;1.57;1.47;;;25.10;60.90;;;;;;5052892;28;20901;-74
2023/05/06 10:46:07;;;;;;;2.53;2.37;;;25.10;60.90;;;;;;5054018;28;20445;-73
2023/05/06 10:48:37;;;;;;;1.90;1.80;;;25.20;60.90;;;;;;5054308;28;20523;-73
2023/05/06 10:51:25;;;;;;;2.00;1.90;;;25.20;60.70;;;;;;5054547;28;20848;-73
2023/05/06 10:54:05;;;;;;;2.00;1.90;;;25.20;60.80;;;;;;5054286;28;20427;-73
2023/05/06 10:56:35;;;;;;;2.20;2.10;;;25.20;60.70;;;;;;5053679;28;20458;-74
2023/05/06 10:59:07;;;;;;;1.97;1.77;;;25.20;60.70;;;;;;5053120;28;20487;-74
2023/05/06 11:01:36;;;;;;;2.37;2.17;;;25.20;60.70;;;;;;5053350;28;20532;-73
2023/05/06 11:04:07;;;;;;;2.20;2.00;;;25.20;60.50;;;;;;5052690;28;20449;-74
2023/05/06 11:06:37;;;;;;;2.70;2.50;;;25.20;60.50;;;;;;5053972;28;20454;-72
2023/05/06 11:09:14;;;;;;;2.07;1.97;;;25.20;60.40;;;;;;5054554;28;20869;-74
2023/05/06 11:11:59;;;;;;;2.17;2.07;;;25.20;60.50;;;;;;5048692;28;20904;-74
2023/05/06 11:14:31;;;;;;;2.00;1.90;;;25.20;60.50;;;;;;5052723;28;20476;-74
2023/05/06 11:17:00;;;;;;;1.93;1.83;;;25.20;60.50;;;;;;5053877;28;20524;-74
2023/05/06 11:19:30;;;;;;;2.67;2.00;;;25.20;60.50;;;;;;5052347;28;21315;-74
2023/05/06 11:21:59;;;;;;;2.27;2.17;;;25.20;60.50;;;;;;5049993;28;20462;-74
2023/05/06 11:24:30;;;;;;;1.90;1.80;;;25.20;60.50;;;;;;5052889;28;20549;-74
2023/05/06 11:27:00;;;;;;;2.63;2.07;;;25.20;60.50;;;;;;5051900;28;20478;-74
2023/05/06 11:29:28;;;;;;;2.00;1.90;;;25.20;60.50;;;;;;5051437;28;20916;-73
2023/05/06 11:31:56;;;;;;;2.10;2.00;;;25.20;60.40;;;;;;5053876;28;20946;-73
2023/05/06 11:34:26;;;;;;;2.30;2.10;;;25.20;60.30;;;;;;5053169;28;20963;-74
2023/05/06 11:37:01;;;;;;;1.80;1.70;;;25.20;60.30;;;;;;5052229;28;20446;-73
2023/05/06 11:39:32;;;;;;;1.93;1.83;;;25.20;60.30;;;;;;5053433;28;20549;-74
2023/05/06 11:42:08;;;;;;;2.10;2.00;;;25.20;60.30;;;;;;5051974;28;20448;-73
2023/05/06 11:44:38;;;;;;;2.03;1.70;;;25.30;60.40;;;;;;5052860;28;20530;-73
2023/05/06 11:47:08;;;;;;;1.60;1.50;;;25.30;60.10;;;;;;5053512;28;20436;-73
2023/05/06 11:49:37;;;;;;;2.50;1.80;;;25.30;60.20;;;;;;5053017;28;20459;-73
2023/05/06 11:52:06;;;;;;;1.73;1.63;;;25.30;60.20;;;;;;5052714;28;20494;-73
2023/05/06 11:54:38;;;;;;;2.13;2.03;;;25.30;60.20;;;;;;5053422;28;20516;-75
2023/05/06 11:57:06;;;;;;;2.10;2.00;;;25.30;60.20;;;;;;5051943;28;20480;-74
2023/05/06 11:59:36;;;;;;;2.17;2.07;;;25.30;60.20;;;;;;5052336;28;20531;-74
2023/05/06 12:02:06;;;;;;;1.90;1.80;;;25.30;60.20;;;;;;5053325;28;20441;-74
2023/05/06 12:04:39;;;;;;;2.50;2.30;;;25.30;60.40;;;;;;5053131;28;20492;-74
2023/05/06 12:07:09;;;;;;;2.03;1.93;;;25.40;60.40;;;;;;5051497;28;20446;-74
2023/05/06 12:09:41;;;;;;;1.80;1.70;;;25.50;59.80;;;;;;5051919;28;20858;-74
2023/05/06 12:12:11;;;;;;;2.17;1.97;;;25.50;59.20;;;;;;5051274;28;20473;-74
2023/05/06 12:14:40;;;;;;;1.70;1.60;;;25.50;59.30;;;;;;5051861;28;20525;-73
2023/05/06 12:17:08;;;;;;;1.70;1.60;;;25.50;59.20;;;;;;5052901;28;20459;-74
2023/05/06 12:19:38;;;;;;;1.90;1.80;;;25.50;59.40;;;;;;5052615;28;20454;-73
2023/05/06 12:22:19;;;;;;;2.10;2.00;;;25.60;59.30;;;;;;5039833;28;20546;-73
2023/05/06 12:24:49;;;;;;;2.17;2.00;;;25.70;58.70;;;;;;5032569;28;20427;-73
2023/05/06 12:27:32;;;;;;;1.90;1.80;;;25.70;59.00;;;;;;5032568;28;20503;-74
2023/05/06 12:30:03;;;;;;;1.70;1.60;;;25.80;58.60;;;;;;5042874;28;20510;-73
2023/05/06 12:32:31;;;;;;;2.30;2.00;;;26.00;58.30;;;;;;5052134;28;20974;-74
2023/05/06 12:35:04;;;;;;;1.90;1.80;;;26.10;57.90;;;;;;5052461;28;20427;-74
2023/05/06 12:37:32;;;;;;;2.10;1.90;;;26.20;57.50;;;;;;5051826;28;20431;-74
2023/05/06 12:40:02;;;;;;;1.93;1.60;;;26.30;57.20;;;;;;5052402;28;20537;-74
2023/05/06 12:42:30;;;;;;;1.50;1.50;;;26.40;57.00;;;;;;5052411;28;20434;-74
2023/05/06 12:45:12;;;;;;;1.67;1.57;;;26.40;56.80;;;;;;5051930;28;20450;-73
2023/05/06 12:47:52;;;;;;;1.40;1.40;;;26.40;56.60;;;;;;5052017;28;20439;-74
2023/05/06 12:50:36;;;;;;;1.30;1.20;;;26.50;56.60;;;;;;5031909;28;20922;-73
2023/05/06 12:53:06;;;;;;;2.00;1.90;;;26.50;56.50;;;;;;5030748;28;20536;-74
2023/05/06 12:55:37;;;;;;;1.80;1.70;;;26.50;56.40;;;;;;5032413;28;20441;-72
2023/05/06 12:58:15;;;;;;;1.97;1.80;;;26.50;56.40;;;;;;5043676;28;20501;-74
2023/05/06 13:00:43;;;;;;;1.87;1.60;;;26.40;56.30;;;;;;5051438;28;21041;-71
2023/05/06 13:03:12;;;;;;;1.50;1.40;;;26.40;56.30;;;;;;5051978;28;20495;-73
2023/05/06 13:05:41;;;;;;;1.70;1.50;;;26.40;56.30;;;;;;5051491;28;20451;-73